createdAt,value
2023-12-14T00:02:24.160Z,3.08
2023-12-14T00:04:51.026Z,3.28
2023-12-14T00:07:17.712Z,3.17
2023-12-14T00:09:44.391Z,2.90
2023-12-14T00:12:11.158Z,2.83
2023-12-14T00:14:37.929Z,2.88
2023-12-14T00:17:04.988Z,2.88
2023-12-14T00:19:31.827Z,2.70
2023-12-14T00:21:58.624Z,3.20
2023-12-14T00:24:26.036Z,2.55
2023-12-14T00:26:52.762Z,2.67
2023-12-14T00:29:19.442Z,2.70
2023-12-14T00:31:46.186Z,2.00
2023-12-14T00:34:12.908Z,2.45
2023-12-14T00:36:39.624Z,1.90
2023-12-14T00:39:06.317Z,3.67
2023-12-14T00:41:33.138Z,2.63
2023-12-14T00:43:59.786Z,2.70
2023-12-14T00:46:26.515Z,2.08
2023-12-14T00:48:53.274Z,1.42
2023-12-14T00:51:19.983Z,2.30
2023-12-14T00:53:46.698Z,2.50
2023-12-14T00:56:13.642Z,2.45
2023-12-14T00:58:40.450Z,2.83
2023-12-14T01:01:07.241Z,2.22
2023-12-14T01:03:34.028Z,2.25
2023-12-14T01:06:00.772Z,2.13
2023-12-14T01:08:27.435Z,1.48
2023-12-14T01:10:54.340Z,1.70
2023-12-14T01:13:21.076Z,1.40
2023-12-14T01:15:48.114Z,1.42
2023-12-14T01:18:14.891Z,2.20
2023-12-14T01:20:42.891Z,1.95
2023-12-14T01:23:11.175Z,1.55
2023-12-14T01:25:37.998Z,1.65
2023-12-14T01:28:04.835Z,2.10
2023-12-14T01:30:31.591Z,2.50
2023-12-14T01:32:58.351Z,1.50
2023-12-14T01:35:25.125Z,2.38
2023-12-14T01:37:51.850Z,1.52
2023-12-14T01:40:21.372Z,2.08
2023-12-14T01:42:48.068Z,1.75
2023-12-14T01:45:16.790Z,1.63
2023-12-14T01:47:44.685Z,1.77
2023-12-14T01:50:11.446Z,2.88
2023-12-14T01:52:38.404Z,2.05
2023-12-14T01:55:05.592Z,1.70
2023-12-14T01:57:32.279Z,1.77
2023-12-14T01:59:58.990Z,2.05
2023-12-14T02:02:25.677Z,1.80
2023-12-14T02:04:52.372Z,1.88
2023-12-14T02:07:19.083Z,1.80
2023-12-14T02:09:45.803Z,2.10
2023-12-14T02:12:12.466Z,2.92
2023-12-14T02:14:39.105Z,2.78
2023-12-14T02:17:05.849Z,2.45
2023-12-14T02:19:32.613Z,3.13
2023-12-14T02:21:59.850Z,2.67
2023-12-14T02:24:26.640Z,1.30
2023-12-14T02:27:02.570Z,1.77
2023-12-14T02:29:30.907Z,2.38
2023-12-14T02:31:57.769Z,2.90
2023-12-14T02:34:26.226Z,1.95
2023-12-14T02:36:53.499Z,2.10
2023-12-14T02:39:20.146Z,3.55
2023-12-14T02:41:46.943Z,4.50
2023-12-14T02:44:13.722Z,3.10
2023-12-14T02:46:40.518Z,3.03
2023-12-14T02:49:07.406Z,2.75
2023-12-14T02:51:34.171Z,2.13
2023-12-14T02:54:00.964Z,3.40
2023-12-14T02:56:27.622Z,3.70
2023-12-14T02:58:55.333Z,2.55
2023-12-14T03:01:25.309Z,2.67
2023-12-14T03:03:52.281Z,3.08
2023-12-14T03:06:19.198Z,2.72
2023-12-14T03:08:45.932Z,4.22
2023-12-14T03:11:23.546Z,2.92
2023-12-14T03:13:51.131Z,3.80
2023-12-14T03:16:18.103Z,2.42
2023-12-14T03:18:44.896Z,2.30
2023-12-14T03:21:11.884Z,2.20
2023-12-14T03:23:38.549Z,2.67
2023-12-14T03:26:05.438Z,3.15
2023-12-14T03:28:32.171Z,2.63
2023-12-14T03:30:58.946Z,2.90
2023-12-14T03:33:25.751Z,2.33
2023-12-14T03:35:52.461Z,3.78
2023-12-14T03:38:19.200Z,2.42
2023-12-14T03:40:45.957Z,2.53
2023-12-14T03:43:12.735Z,2.75
2023-12-14T03:45:39.488Z,2.97
2023-12-14T03:48:06.652Z,2.55
2023-12-14T03:50:33.980Z,2.88
2023-12-14T03:53:00.689Z,1.90
2023-12-14T03:55:27.426Z,2.67
2023-12-14T03:57:54.572Z,3.40
2023-12-14T04:00:21.713Z,2.10
2023-12-14T04:02:48.534Z,2.70
2023-12-14T04:05:15.353Z,2.00
2023-12-14T04:07:42.422Z,2.28
2023-12-14T04:10:10.919Z,3.10
2023-12-14T04:12:38.780Z,2.60
2023-12-14T04:15:07.141Z,3.70
2023-12-14T04:17:34.681Z,2.42
2023-12-14T04:20:01.952Z,2.40
2023-12-14T04:22:28.714Z,2.88
2023-12-14T04:24:55.744Z,2.63
2023-12-14T04:27:25.281Z,1.98
2023-12-14T04:29:51.976Z,3.55
2023-12-14T04:32:18.705Z,2.00
2023-12-14T04:34:45.426Z,2.55
2023-12-14T04:37:12.180Z,2.53
2023-12-14T04:39:38.923Z,2.75
2023-12-14T04:42:05.764Z,2.38
2023-12-14T04:44:32.442Z,2.30
2023-12-14T04:46:59.227Z,2.13
2023-12-14T04:49:26.052Z,2.35
2023-12-14T04:51:52.712Z,3.28
2023-12-14T04:54:19.455Z,2.20
2023-12-14T04:56:49.053Z,1.98
2023-12-14T04:59:16.012Z,1.95
2023-12-14T05:01:42.737Z,1.80
2023-12-14T05:04:09.656Z,2.08
2023-12-14T05:06:36.492Z,1.42
2023-12-14T05:09:06.237Z,1.98
2023-12-14T05:11:33.183Z,2.13
2023-12-14T05:14:00.023Z,1.67
2023-12-14T05:16:27.928Z,1.95
2023-12-14T05:18:55.037Z,2.50
2023-12-14T05:21:21.903Z,1.85
2023-12-14T05:23:48.677Z,2.42
2023-12-14T05:26:15.610Z,2.38
2023-12-14T05:28:42.412Z,1.92
2023-12-14T05:31:09.330Z,2.13
2023-12-14T05:33:40.512Z,2.55
2023-12-14T05:36:11.996Z,2.05
2023-12-14T05:38:43.430Z,1.80
2023-12-14T05:41:11.350Z,1.85
2023-12-14T05:43:38.224Z,1.70
2023-12-14T05:46:05.286Z,1.90
2023-12-14T05:48:32.167Z,1.60
2023-12-14T05:50:58.965Z,1.65
2023-12-14T05:53:25.666Z,1.98
2023-12-14T05:55:52.393Z,1.83
2023-12-14T05:58:19.838Z,1.80
2023-12-14T06:00:46.647Z,1.50
2023-12-14T06:03:13.385Z,3.13
2023-12-14T06:05:40.239Z,2.28
2023-12-14T06:08:07.152Z,3.17
2023-12-14T06:10:34.000Z,1.70
2023-12-14T06:13:00.746Z,1.98
2023-12-14T06:15:27.415Z,2.70
2023-12-14T06:17:54.260Z,2.58
2023-12-14T06:20:21.185Z,1.75
2023-12-14T06:22:48.016Z,2.60
2023-12-14T06:25:14.718Z,1.80
2023-12-14T06:27:43.058Z,1.75
2023-12-14T06:30:11.944Z,2.55
2023-12-14T06:32:39.190Z,3.65
2023-12-14T06:35:06.923Z,2.08
2023-12-14T06:37:33.655Z,3.45
2023-12-14T06:40:00.334Z,1.42
2023-12-14T06:42:29.161Z,2.42
2023-12-14T06:44:55.905Z,3.22
2023-12-14T06:47:22.701Z,3.28
2023-12-14T06:49:49.580Z,2.42
2023-12-14T06:52:16.328Z,2.13
2023-12-14T06:54:42.984Z,2.13
2023-12-14T06:57:09.701Z,1.98
2023-12-14T06:59:36.689Z,2.20
2023-12-14T07:02:03.549Z,3.13
2023-12-14T07:04:30.767Z,2.47
2023-12-14T07:06:57.433Z,1.98
2023-12-14T07:09:24.081Z,2.42
2023-12-14T07:11:50.901Z,2.70
2023-12-14T07:14:17.688Z,2.50
2023-12-14T07:16:44.527Z,2.63
2023-12-14T07:19:12.575Z,5.30
2023-12-14T07:21:39.432Z,2.30
2023-12-14T07:24:06.413Z,2.50
2023-12-14T07:26:33.213Z,2.40
2023-12-14T07:28:59.987Z,2.17
2023-12-14T07:31:29.179Z,2.28
2023-12-14T07:33:56.922Z,4.53
2023-12-14T07:36:23.882Z,2.38
2023-12-14T07:38:52.381Z,3.38
2023-12-14T07:41:21.321Z,2.53
2023-12-14T07:43:48.043Z,3.05
2023-12-14T07:46:15.704Z,2.80
2023-12-14T07:48:42.451Z,2.13
2023-12-14T07:51:09.177Z,2.60
2023-12-14T07:53:35.871Z,2.95
2023-12-14T07:56:03.977Z,2.38
2023-12-14T07:58:30.794Z,2.63
2023-12-14T08:00:57.594Z,2.90
2023-12-14T08:03:24.407Z,2.63
2023-12-14T08:05:51.346Z,3.33
2023-12-14T08:08:18.287Z,3.08
2023-12-14T08:10:45.042Z,3.25
2023-12-14T08:13:11.772Z,2.42
2023-12-14T08:15:38.486Z,4.22
2023-12-14T08:18:05.811Z,2.60
2023-12-14T08:20:33.080Z,3.40
2023-12-14T08:22:59.856Z,2.10
2023-12-14T08:25:27.025Z,3.97
2023-12-14T08:27:53.711Z,2.42
2023-12-14T08:30:20.616Z,2.47
2023-12-14T08:32:47.454Z,2.25
2023-12-14T08:35:14.304Z,4.80
2023-12-14T08:37:41.093Z,3.03
2023-12-14T08:40:08.606Z,3.10
2023-12-14T08:42:35.827Z,2.35
2023-12-14T08:45:03.021Z,3.15
2023-12-14T08:47:29.764Z,2.38
2023-12-14T08:49:56.594Z,3.30
2023-12-14T08:52:23.334Z,2.90
2023-12-14T08:54:50.114Z,2.67
2023-12-14T08:57:16.762Z,2.58
2023-12-14T08:59:44.703Z,2.30
2023-12-14T09:02:11.875Z,2.42
2023-12-14T09:04:38.800Z,2.03
2023-12-14T09:07:05.673Z,1.98
2023-12-14T09:09:33.661Z,3.25
2023-12-14T09:12:00.612Z,2.72
2023-12-14T09:14:27.658Z,2.13
2023-12-14T09:16:54.600Z,3.00
2023-12-14T09:19:21.599Z,3.00
2023-12-14T09:21:48.466Z,3.42
2023-12-14T09:24:15.322Z,2.70
2023-12-14T09:26:42.138Z,2.08
2023-12-14T09:29:09.510Z,1.98
2023-12-14T09:31:36.955Z,2.00
2023-12-14T09:34:04.633Z,3.53
2023-12-14T09:36:31.418Z,4.40
2023-12-14T09:38:58.352Z,2.05
2023-12-14T09:41:25.090Z,3.47
2023-12-14T09:43:53.187Z,2.05
2023-12-14T09:46:22.011Z,4.65
2023-12-14T09:48:51.594Z,2.05
2023-12-14T09:51:18.813Z,2.65
2023-12-14T09:53:45.580Z,2.67
2023-12-14T09:56:12.374Z,2.92
2023-12-14T09:58:39.107Z,4.03
2023-12-14T10:01:23.213Z,3.78
2023-12-14T10:03:50.008Z,3.75
2023-12-14T10:06:16.923Z,3.35
2023-12-14T10:08:56.024Z,2.95
2023-12-14T10:11:23.451Z,3.90
2023-12-14T10:13:50.588Z,2.20
2023-12-14T10:16:31.725Z,3.60
2023-12-14T10:19:00.349Z,3.05
2023-12-14T10:21:28.494Z,4.20
2023-12-14T10:23:59.022Z,3.65
2023-12-14T10:26:27.213Z,3.15
2023-12-14T10:28:54.967Z,3.58
2023-12-14T10:31:22.544Z,3.35
2023-12-14T10:33:50.043Z,4.28
2023-12-14T10:36:21.054Z,2.97
2023-12-14T10:38:50.251Z,3.45
2023-12-14T10:41:18.957Z,3.25
2023-12-14T10:43:50.281Z,2.35
2023-12-14T10:46:21.823Z,3.57
2023-12-14T10:48:50.620Z,2.63
2023-12-14T10:51:19.632Z,3.35
2023-12-14T10:53:50.313Z,2.80
2023-12-14T10:56:19.121Z,2.88
2023-12-14T10:58:57.778Z,3.58
2023-12-14T11:01:25.606Z,5.25
2023-12-14T11:03:58.939Z,4.68
2023-12-14T11:06:34.188Z,4.18
2023-12-14T11:09:09.449Z,3.63
2023-12-14T11:11:45.184Z,4.03
2023-12-14T11:14:13.946Z,4.32
2023-12-14T11:16:45.997Z,2.58
2023-12-14T11:19:24.855Z,4.60
2023-12-14T11:21:54.521Z,3.63
2023-12-14T11:24:21.175Z,6.10
2023-12-14T11:26:50.762Z,4.55
2023-12-14T11:29:19.053Z,3.85
2023-12-14T11:31:45.859Z,5.65
2023-12-14T11:34:12.989Z,3.63
2023-12-14T11:36:42.820Z,3.65
2023-12-14T11:39:10.798Z,5.15
2023-12-14T11:41:39.528Z,4.90
2023-12-14T11:44:06.608Z,4.78
2023-12-14T11:46:33.650Z,5.13
2023-12-14T11:49:00.847Z,6.97
2023-12-14T11:51:27.840Z,5.82
2023-12-14T11:53:54.600Z,5.43
2023-12-14T11:56:23.873Z,6.70
2023-12-14T11:58:50.727Z,6.65
2023-12-14T12:01:22.151Z,6.20
2023-12-14T12:03:49.010Z,6.80
2023-12-14T12:06:24.191Z,7.10
2023-12-14T12:08:53.530Z,7.20
2023-12-14T12:11:24.448Z,6.05
2023-12-14T12:13:55.712Z,7.95
2023-12-14T12:16:23.072Z,7.10
2023-12-14T12:18:52.066Z,7.38
2023-12-14T12:21:18.978Z,5.63
2023-12-14T12:23:45.642Z,7.95
2023-12-14T12:26:12.401Z,6.28
2023-12-14T12:28:39.185Z,7.82
2023-12-14T12:31:05.975Z,7.90
2023-12-14T12:33:38.597Z,7.38
2023-12-14T12:36:06.611Z,9.45
2023-12-14T12:38:33.564Z,9.98
2023-12-14T12:41:01.808Z,9.68
2023-12-14T12:43:28.621Z,11.10
2023-12-14T12:45:55.383Z,8.98
2023-12-14T12:48:24.865Z,9.02
2023-12-14T12:50:53.532Z,11.02
2023-12-14T12:53:20.271Z,8.18
2023-12-14T12:55:47.006Z,8.68
2023-12-14T12:58:15.988Z,10.48
2023-12-14T13:00:42.867Z,9.18
2023-12-14T13:03:11.127Z,8.85
2023-12-14T13:05:38.200Z,7.82
2023-12-14T13:08:05.155Z,8.68
2023-12-14T13:10:33.046Z,8.68
2023-12-14T13:13:00.333Z,9.80
2023-12-14T13:15:28.467Z,8.02
2023-12-14T13:17:55.688Z,12.23
2023-12-14T13:20:23.031Z,10.65
2023-12-14T13:22:50.567Z,9.75
2023-12-14T13:25:17.527Z,15.80
2023-12-14T13:27:44.630Z,13.13
2023-12-14T13:30:12.741Z,12.13
2023-12-14T13:32:39.665Z,14.25
2023-12-14T13:35:07.158Z,13.60
2023-12-14T13:37:34.506Z,17.40
2023-12-14T13:40:01.752Z,17.10
2023-12-14T13:42:28.481Z,15.52
2023-12-14T13:44:55.181Z,19.40
2023-12-14T13:47:22.023Z,17.60
2023-12-14T13:49:48.765Z,15.65
2023-12-14T13:52:15.494Z,16.13
2023-12-14T13:54:42.151Z,20.70
2023-12-14T13:57:08.999Z,18.98
2023-12-14T13:59:35.791Z,17.48
2023-12-14T14:02:02.496Z,19.75
2023-12-14T14:04:29.314Z,17.77
2023-12-14T14:06:56.033Z,25.67
2023-12-14T14:09:22.713Z,20.92
2023-12-14T14:11:52.378Z,19.83
2023-12-14T14:14:20.120Z,19.70
2023-12-14T14:16:47.059Z,16.08
2023-12-14T14:19:13.898Z,15.00
2023-12-14T14:21:40.606Z,15.77
2023-12-14T14:24:07.499Z,14.93
2023-12-14T14:26:34.275Z,17.27
2023-12-14T14:29:03.127Z,12.93
2023-12-14T14:31:34.018Z,10.13
2023-12-14T14:34:01.750Z,12.23
2023-12-14T14:36:28.665Z,34.08
2023-12-14T14:38:58.416Z,12.13
2023-12-14T14:41:25.763Z,10.45
2023-12-14T14:43:53.258Z,11.52
2023-12-14T14:46:20.282Z,16.92
2023-12-14T14:48:47.223Z,10.43
2023-12-14T14:51:14.409Z,27.35
2023-12-14T14:53:44.149Z,10.18
2023-12-14T14:56:11.943Z,7.47
2023-12-14T14:58:39.055Z,13.35
2023-12-14T15:01:06.392Z,11.88
2023-12-14T15:03:33.300Z,8.52
2023-12-14T15:06:00.403Z,7.93
2023-12-14T15:08:27.430Z,6.85
2023-12-14T15:10:56.837Z,9.50
2023-12-14T15:13:23.743Z,7.50
2023-12-14T15:15:50.650Z,8.68
2023-12-14T15:18:17.869Z,8.73
2023-12-14T15:20:44.730Z,9.27
2023-12-14T15:23:11.528Z,10.95
2023-12-14T15:25:38.302Z,8.10
2023-12-14T15:28:05.069Z,7.82
2023-12-14T15:30:31.902Z,7.38
2023-12-14T15:32:59.264Z,8.85
2023-12-14T15:35:26.228Z,6.00
2023-12-14T15:37:53.030Z,7.80
2023-12-14T15:40:20.128Z,7.00
2023-12-14T15:42:51.941Z,9.63
2023-12-14T15:45:21.338Z,8.15
2023-12-14T15:47:48.469Z,6.55
2023-12-14T15:50:15.458Z,6.35
2023-12-14T15:52:42.219Z,7.68
2023-12-14T15:55:09.299Z,6.63
2023-12-14T15:57:36.113Z,6.15
2023-12-14T16:00:04.004Z,7.28
2023-12-14T16:02:30.726Z,5.68
2023-12-14T16:04:58.035Z,7.18
2023-12-14T16:07:25.572Z,5.57
2023-12-14T16:09:52.410Z,6.97
2023-12-14T16:12:19.268Z,6.00
2023-12-14T16:14:45.981Z,6.03
2023-12-14T16:17:12.721Z,8.18
2023-12-14T16:19:39.446Z,7.60
2023-12-14T16:22:06.142Z,7.82
2023-12-14T16:24:32.884Z,10.18
2023-12-14T16:26:59.941Z,7.50
2023-12-14T16:29:28.292Z,7.18
2023-12-14T16:31:55.631Z,7.95
2023-12-14T16:34:22.497Z,10.38
2023-12-14T16:36:49.841Z,7.38
2023-12-14T16:39:16.818Z,6.78
2023-12-14T16:41:43.671Z,8.27
2023-12-14T16:44:10.842Z,9.27
2023-12-14T16:46:37.775Z,11.10
2023-12-14T16:49:04.868Z,9.02
2023-12-14T16:51:31.741Z,8.13
2023-12-14T16:53:58.693Z,8.75
2023-12-14T16:56:32.943Z,9.40
2023-12-14T16:59:00.262Z,7.72
2023-12-14T17:01:27.182Z,10.52
2023-12-14T17:03:54.251Z,6.28
2023-12-14T17:06:22.512Z,9.57
2023-12-14T17:08:49.578Z,7.25
2023-12-14T17:11:16.546Z,6.50
2023-12-14T17:13:43.433Z,9.15
2023-12-14T17:16:17.419Z,8.15
2023-12-14T17:18:45.141Z,10.13
2023-12-14T17:21:24.651Z,7.32
2023-12-14T17:23:52.756Z,8.73
2023-12-14T17:26:21.430Z,9.95
2023-12-14T17:28:52.449Z,12.10
2023-12-14T17:31:21.423Z,7.10
2023-12-14T17:33:48.726Z,11.77
2023-12-14T17:36:16.349Z,10.40
2023-12-14T17:38:43.387Z,8.38
2023-12-14T17:41:11.635Z,8.43
2023-12-14T17:43:38.344Z,8.45
2023-12-14T17:46:06.072Z,7.75
2023-12-14T17:48:33.924Z,10.05
2023-12-14T17:51:04.468Z,9.52
2023-12-14T17:53:31.243Z,9.75
2023-12-14T17:55:58.267Z,9.15
2023-12-14T17:58:25.142Z,14.13
2023-12-14T18:00:51.872Z,10.00
2023-12-14T18:03:18.772Z,8.77
2023-12-14T18:05:46.599Z,9.43
2023-12-14T18:08:13.559Z,6.10
2023-12-14T18:10:40.402Z,9.10
2023-12-14T18:13:07.146Z,9.25
2023-12-14T18:15:33.885Z,12.55
2023-12-14T18:18:01.032Z,7.20
2023-12-14T18:20:27.907Z,12.65
2023-12-14T18:22:54.751Z,11.60
2023-12-14T18:25:23.660Z,10.77
2023-12-14T18:27:52.876Z,7.03
2023-12-14T18:30:20.050Z,10.73
2023-12-14T18:32:50.389Z,14.10
2023-12-14T18:35:18.427Z,10.13
2023-12-14T18:37:45.299Z,11.77
2023-12-14T18:40:12.335Z,9.68
2023-12-14T18:42:39.054Z,8.27
2023-12-14T18:45:06.844Z,7.68
2023-12-14T18:47:33.649Z,8.85
2023-12-14T18:50:04.699Z,11.30
2023-12-14T18:52:31.676Z,9.65
2023-12-14T18:54:58.356Z,9.48
2023-12-14T18:57:26.005Z,10.38
2023-12-14T18:59:52.939Z,11.27
2023-12-14T19:02:19.861Z,12.23
2023-12-14T19:04:46.834Z,9.48
2023-12-14T19:07:14.648Z,8.88
2023-12-14T19:09:44.377Z,7.53
2023-12-14T19:12:11.264Z,9.60
2023-12-14T19:14:37.906Z,14.32
2023-12-14T19:17:04.815Z,8.27
2023-12-14T19:19:31.778Z,5.45
2023-12-14T19:21:58.528Z,7.00
2023-12-14T19:24:25.212Z,19.20
2023-12-14T19:26:55.102Z,8.43
2023-12-14T19:29:21.849Z,7.93
2023-12-14T19:31:48.590Z,9.23
2023-12-14T19:34:15.372Z,8.73
2023-12-14T19:36:42.264Z,11.80
2023-12-14T19:39:08.996Z,9.13
2023-12-14T19:41:37.314Z,14.95
2023-12-14T19:44:04.301Z,11.60
2023-12-14T19:46:31.207Z,10.60
2023-12-14T19:48:57.961Z,9.07
2023-12-14T19:51:24.675Z,7.32
2023-12-14T19:53:51.339Z,14.18
2023-12-14T19:56:19.334Z,7.93
2023-12-14T19:58:47.042Z,11.00
2023-12-14T20:01:15.393Z,20.65
2023-12-14T20:03:42.266Z,15.10
2023-12-14T20:06:11.049Z,10.68
2023-12-14T20:08:40.890Z,8.75
2023-12-14T20:11:07.717Z,10.80
2023-12-14T20:13:34.406Z,9.68
2023-12-14T20:16:01.152Z,9.02
2023-12-14T20:18:27.878Z,9.63
2023-12-14T20:20:54.671Z,10.85
2023-12-14T20:23:21.468Z,13.40
2023-12-14T20:25:48.207Z,8.77
2023-12-14T20:28:14.955Z,8.05
2023-12-14T20:30:46.515Z,9.25
2023-12-14T20:33:13.482Z,9.70
2023-12-14T20:35:40.305Z,6.88
2023-12-14T20:38:08.401Z,9.00
2023-12-14T20:40:35.375Z,8.38
2023-12-14T20:43:02.130Z,7.80
2023-12-14T20:45:29.164Z,9.27
2023-12-14T20:47:56.053Z,7.53
2023-12-14T20:50:23.011Z,7.18
2023-12-14T20:52:49.756Z,9.82
2023-12-14T20:55:16.641Z,9.57
2023-12-14T20:57:43.316Z,6.55
2023-12-14T21:00:10.689Z,7.40
2023-12-14T21:02:41.200Z,12.57
2023-12-14T21:05:08.730Z,7.43
2023-12-14T21:07:35.660Z,8.25
2023-12-14T21:10:02.570Z,9.98
2023-12-14T21:12:29.290Z,10.55
2023-12-14T21:14:56.048Z,9.88
2023-12-14T21:17:23.056Z,8.85
2023-12-14T21:19:52.119Z,9.05
2023-12-14T21:22:19.075Z,9.05
2023-12-14T21:24:46.965Z,7.07
2023-12-14T21:27:32.168Z,10.57
2023-12-14T21:29:58.850Z,6.00
2023-12-14T21:32:25.740Z,8.18
2023-12-14T21:34:52.507Z,9.95
2023-12-14T21:37:19.248Z,19.00
2023-12-14T21:39:46.239Z,9.43
2023-12-14T21:42:12.956Z,6.43
2023-12-14T21:44:39.743Z,14.90
2023-12-14T21:47:06.494Z,5.22
2023-12-14T21:49:33.254Z,6.53
2023-12-14T21:52:00.033Z,12.65
2023-12-14T21:54:26.709Z,7.20
2023-12-14T21:56:53.560Z,7.97
2023-12-14T21:59:20.348Z,11.43
2023-12-14T22:01:47.106Z,8.35
2023-12-14T22:04:13.891Z,8.70
2023-12-14T22:06:40.762Z,12.48
2023-12-14T22:09:07.514Z,11.30
2023-12-14T22:11:34.246Z,8.20
2023-12-14T22:14:01.071Z,13.77
2023-12-14T22:16:27.892Z,8.98
2023-12-14T22:18:54.806Z,12.35
2023-12-14T22:21:21.721Z,12.55
2023-12-14T22:23:48.357Z,6.88
2023-12-14T22:26:15.049Z,8.40
2023-12-14T22:28:41.764Z,10.02
2023-12-14T22:31:08.414Z,7.28
2023-12-14T22:33:35.152Z,7.13
2023-12-14T22:36:01.921Z,7.72
2023-12-14T22:38:28.855Z,7.18
2023-12-14T22:40:56.115Z,10.15
2023-12-14T22:43:23.442Z,9.15
2023-12-14T22:45:50.146Z,8.43
2023-12-14T22:48:16.965Z,16.05
2023-12-14T22:50:43.751Z,6.88
2023-12-14T22:53:15.853Z,5.57
2023-12-14T22:55:50.301Z,12.75
2023-12-14T22:58:17.106Z,7.55
2023-12-14T23:00:43.885Z,7.20
2023-12-14T23:03:11.212Z,7.85
2023-12-14T23:05:41.031Z,8.02
2023-12-14T23:08:07.772Z,5.70
2023-12-14T23:10:34.569Z,8.98
2023-12-14T23:13:01.248Z,6.70
2023-12-14T23:15:27.937Z,10.63
2023-12-14T23:17:55.514Z,6.28
2023-12-14T23:20:22.523Z,8.07
2023-12-14T23:22:49.246Z,10.25
2023-12-14T23:25:15.996Z,7.82
2023-12-14T23:27:42.650Z,8.35
2023-12-14T23:30:09.715Z,9.48
2023-12-14T23:32:36.552Z,10.05
2023-12-14T23:35:03.607Z,9.60
2023-12-14T23:37:30.276Z,6.78
2023-12-14T23:39:56.946Z,6.40
2023-12-14T23:42:23.703Z,8.73
2023-12-14T23:44:50.477Z,14.00
2023-12-14T23:47:17.364Z,8.07
2023-12-14T23:49:44.107Z,5.07
2023-12-14T23:52:10.867Z,11.00
2023-12-14T23:54:37.559Z,6.20
2023-12-14T23:57:04.574Z,7.35
2023-12-14T23:59:31.359Z,5.65
